createdAt,value
2022-12-27T00:01:50.266Z,10.00
2022-12-27T00:04:20.688Z,10.00
2022-12-27T00:06:49.135Z,10.00
2022-12-27T00:09:17.421Z,10.00
2022-12-27T00:11:48.150Z,10.00
2022-12-27T00:14:16.441Z,10.00
2022-12-27T00:16:44.700Z,10.00
2022-12-27T00:19:12.986Z,10.00
2022-12-27T00:21:41.215Z,10.00
2022-12-27T00:24:09.511Z,10.00
2022-12-27T00:26:38.258Z,9.90
2022-12-27T00:29:08.457Z,10.00
2022-12-27T00:31:37.591Z,9.90
2022-12-27T00:34:07.904Z,10.00
2022-12-27T00:36:36.442Z,10.00
2022-12-27T00:39:05.359Z,10.00
2022-12-27T00:41:33.739Z,10.00
2022-12-27T00:44:01.986Z,10.00
2022-12-27T00:46:31.582Z,10.00
2022-12-27T00:48:59.753Z,10.00
2022-12-27T00:51:28.752Z,10.00
2022-12-27T00:53:59.250Z,10.00
2022-12-27T00:56:29.247Z,10.00
2022-12-27T00:59:01.799Z,10.10
2022-12-27T01:01:33.071Z,10.00
2022-12-27T01:04:02.070Z,10.10
2022-12-27T01:06:32.298Z,10.10
2022-12-27T01:09:01.776Z,10.10
2022-12-27T01:11:31.324Z,10.10
2022-12-27T01:14:01.095Z,10.00
2022-12-27T01:16:32.397Z,10.00
2022-12-27T01:19:01.115Z,10.00
2022-12-27T01:21:30.959Z,10.00
2022-12-27T01:23:59.904Z,10.00
2022-12-27T01:26:29.413Z,10.00
2022-12-27T01:28:57.795Z,10.00
2022-12-27T01:31:29.636Z,10.10
2022-12-27T01:34:01.222Z,10.10
2022-12-27T01:36:30.790Z,10.10
2022-12-27T01:39:00.039Z,10.10
2022-12-27T01:41:48.675Z,10.10
2022-12-27T01:44:53.988Z,10.10
2022-12-27T01:47:32.480Z,10.10
2022-12-27T01:50:09.105Z,10.10
2022-12-27T01:52:40.833Z,10.00
2022-12-27T01:55:17.595Z,10.00
2022-12-27T01:57:46.774Z,10.00
2022-12-27T02:00:15.820Z,10.00
2022-12-27T02:02:44.571Z,10.00
2022-12-27T02:05:17.714Z,10.10
2022-12-27T02:07:59.464Z,10.10
2022-12-27T02:10:29.113Z,10.10
2022-12-27T02:12:58.701Z,10.10
2022-12-27T02:15:26.892Z,10.10
2022-12-27T02:17:55.221Z,10.10
2022-12-27T02:20:27.134Z,10.00
2022-12-27T02:23:40.935Z,10.00
2022-12-27T02:26:35.186Z,10.00
2022-12-27T02:29:34.484Z,9.90
2022-12-27T02:32:07.433Z,9.90
2022-12-27T02:34:44.305Z,9.90
2022-12-27T02:37:14.721Z,9.80
2022-12-27T02:39:46.712Z,9.80
2022-12-27T02:42:36.879Z,9.90
2022-12-27T02:45:34.771Z,9.90
2022-12-27T02:48:20.710Z,9.80
2022-12-27T02:51:18.508Z,9.70
2022-12-27T02:53:57.404Z,9.70
2022-12-27T02:56:54.450Z,9.80
2022-12-27T02:59:35.287Z,9.80
2022-12-27T03:02:34.114Z,9.80
2022-12-27T03:05:16.121Z,9.70
2022-12-27T03:07:50.091Z,9.60
2022-12-27T03:10:49.866Z,9.50
2022-12-27T03:13:42.341Z,9.50
2022-12-27T03:16:18.170Z,9.40
2022-12-27T03:19:02.865Z,9.30
2022-12-27T03:21:50.603Z,9.30
2022-12-27T03:24:38.186Z,9.20
2022-12-27T03:27:16.961Z,9.00
2022-12-27T03:30:06.274Z,8.90
2022-12-27T03:33:03.308Z,8.70
2022-12-27T03:35:39.190Z,8.40
2022-12-27T03:38:09.531Z,8.10
2022-12-27T03:41:01.927Z,7.90
2022-12-27T03:43:30.984Z,7.70
2022-12-27T03:46:25.454Z,7.50
2022-12-27T03:49:16.971Z,7.40
2022-12-27T03:51:51.300Z,7.20
2022-12-27T03:54:27.312Z,7.10
2022-12-27T03:56:57.160Z,7.00
2022-12-27T03:59:27.316Z,6.90
2022-12-27T04:01:55.828Z,6.80
2022-12-27T04:04:24.142Z,6.80
2022-12-27T04:06:54.020Z,6.70
2022-12-27T04:09:39.469Z,6.70
2022-12-27T04:12:28.146Z,6.70
2022-12-27T04:15:16.573Z,6.60
2022-12-27T04:18:04.710Z,6.60
2022-12-27T04:20:50.364Z,6.50
2022-12-27T04:23:37.230Z,6.50
2022-12-27T04:26:26.029Z,6.60
2022-12-27T04:29:11.436Z,6.50
2022-12-27T04:31:57.256Z,6.50
2022-12-27T04:34:44.033Z,6.50
2022-12-27T04:37:15.136Z,6.60
2022-12-27T04:40:08.839Z,6.50
2022-12-27T04:42:54.306Z,6.50
2022-12-27T04:45:40.629Z,6.50
2022-12-27T04:48:30.881Z,6.50
2022-12-27T04:51:16.751Z,6.50
2022-12-27T04:53:58.874Z,6.40
2022-12-27T04:56:30.695Z,6.30
2022-12-27T04:59:27.762Z,6.30
2022-12-27T05:02:05.251Z,6.30
2022-12-27T05:04:35.926Z,6.30
2022-12-27T05:07:19.805Z,6.30
2022-12-27T05:10:05.382Z,6.20
2022-12-27T05:12:52.385Z,6.30
2022-12-27T05:15:20.708Z,6.30
2022-12-27T05:17:49.418Z,6.30
2022-12-27T05:20:17.791Z,6.30
2022-12-27T05:23:03.420Z,6.20
2022-12-27T05:25:38.666Z,6.10
2022-12-27T05:28:10.399Z,6.00
2022-12-27T05:30:40.354Z,6.00
2022-12-27T05:33:09.160Z,5.90
2022-12-27T05:35:37.680Z,5.90
2022-12-27T05:38:06.867Z,5.80
2022-12-27T05:40:35.637Z,5.80
2022-12-27T05:43:05.118Z,5.80
2022-12-27T05:45:34.775Z,5.70
2022-12-27T05:48:05.883Z,5.70
2022-12-27T05:50:34.094Z,5.70
2022-12-27T05:53:11.793Z,5.70
2022-12-27T05:55:40.077Z,5.60
2022-12-27T05:58:08.372Z,5.60
2022-12-27T06:00:37.999Z,5.50
2022-12-27T06:03:06.333Z,5.60
2022-12-27T06:05:34.685Z,5.50
2022-12-27T06:08:02.816Z,5.60
2022-12-27T06:10:31.022Z,5.50
2022-12-27T06:13:01.523Z,5.40
2022-12-27T06:15:30.218Z,5.40
2022-12-27T06:18:03.494Z,5.40
2022-12-27T06:20:31.855Z,5.30
2022-12-27T06:23:01.084Z,5.30
2022-12-27T06:25:29.479Z,5.30
2022-12-27T06:27:57.702Z,5.20
2022-12-27T06:30:25.915Z,5.20
2022-12-27T06:32:54.244Z,5.10
2022-12-27T06:35:23.786Z,5.10
2022-12-27T06:37:51.985Z,5.00
2022-12-27T06:40:22.041Z,5.00
2022-12-27T06:42:50.208Z,5.00
2022-12-27T06:45:20.500Z,5.00
2022-12-27T06:47:48.696Z,5.00
2022-12-27T06:50:16.950Z,5.00
2022-12-27T06:52:46.479Z,5.00
2022-12-27T06:55:14.790Z,5.00
2022-12-27T06:57:43.033Z,5.00
2022-12-27T07:00:14.503Z,5.00
2022-12-27T07:02:42.819Z,5.00
2022-12-27T07:05:11.128Z,4.90
2022-12-27T07:07:39.360Z,4.90
2022-12-27T07:10:09.963Z,4.90
2022-12-27T07:12:38.586Z,4.90
2022-12-27T07:15:08.093Z,4.80
2022-12-27T07:17:37.036Z,4.80
2022-12-27T07:20:05.409Z,4.80
2022-12-27T07:22:33.895Z,4.70
2022-12-27T07:25:02.134Z,4.70
2022-12-27T07:27:34.398Z,4.70
2022-12-27T07:30:02.799Z,4.80
2022-12-27T07:32:30.991Z,4.70
2022-12-27T07:35:02.308Z,4.70
2022-12-27T07:37:30.518Z,4.70
2022-12-27T07:39:58.689Z,4.70
2022-12-27T07:42:27.087Z,4.80
2022-12-27T07:44:59.212Z,4.80
2022-12-27T07:47:27.355Z,4.80
2022-12-27T07:49:58.262Z,4.80
2022-12-27T07:52:27.117Z,5.00
2022-12-27T07:54:55.327Z,5.00
2022-12-27T07:57:24.177Z,5.00
2022-12-27T07:59:52.426Z,5.00
2022-12-27T08:02:22.040Z,5.00
2022-12-27T08:04:50.359Z,5.10
2022-12-27T08:07:20.861Z,5.10
2022-12-27T08:09:50.333Z,5.20
2022-12-27T08:12:18.558Z,5.20
2022-12-27T08:14:46.770Z,5.30
2022-12-27T08:17:20.294Z,5.30
2022-12-27T08:19:52.491Z,5.30
2022-12-27T08:22:21.013Z,5.40
2022-12-27T08:24:51.703Z,5.50
2022-12-27T08:27:23.488Z,5.60
2022-12-27T08:29:51.835Z,5.60
2022-12-27T08:32:20.255Z,5.70
2022-12-27T08:34:49.891Z,5.70
2022-12-27T08:37:18.145Z,5.70
2022-12-27T08:39:46.362Z,5.70
2022-12-27T08:42:17.644Z,5.70
2022-12-27T08:44:45.917Z,5.70
2022-12-27T08:47:14.242Z,5.80
2022-12-27T08:49:42.423Z,5.80
2022-12-27T08:52:12.128Z,5.90
2022-12-27T08:54:40.344Z,5.90
2022-12-27T08:57:08.586Z,6.00
2022-12-27T08:59:36.803Z,6.10
2022-12-27T09:02:05.111Z,6.10
2022-12-27T09:04:33.384Z,6.20
2022-12-27T09:07:01.619Z,6.20
2022-12-27T09:09:31.224Z,6.30
2022-12-27T09:12:02.919Z,6.30
2022-12-27T09:14:34.007Z,6.30
2022-12-27T09:17:02.268Z,6.30
2022-12-27T09:19:30.496Z,6.30
2022-12-27T09:21:58.794Z,6.30
2022-12-27T09:24:27.019Z,6.30
2022-12-27T09:26:56.666Z,6.30
2022-12-27T09:29:24.864Z,6.40
2022-12-27T09:31:53.167Z,6.40
2022-12-27T09:34:21.423Z,6.40
2022-12-27T09:36:49.669Z,6.40
2022-12-27T09:39:17.972Z,6.30
2022-12-27T09:44:52.379Z,6.50
2022-12-27T09:47:24.991Z,6.40
2022-12-27T09:49:57.974Z,6.40
2022-12-27T09:52:34.212Z,6.50
2022-12-27T09:55:09.726Z,6.50
2022-12-27T09:57:41.229Z,6.60
2022-12-27T10:00:17.637Z,6.70
2022-12-27T10:02:46.589Z,6.70
2022-12-27T10:05:22.573Z,6.80
2022-12-27T10:08:03.190Z,6.90
2022-12-27T10:10:42.380Z,6.90
2022-12-27T10:13:33.278Z,6.80
2022-12-27T10:16:15.640Z,6.90
2022-12-27T10:18:56.345Z,6.90
2022-12-27T10:21:27.244Z,7.00
2022-12-27T10:23:57.679Z,7.00
2022-12-27T10:26:26.099Z,7.10
2022-12-27T10:29:00.148Z,7.10
2022-12-27T10:31:32.226Z,7.10
2022-12-27T10:34:06.194Z,7.10
2022-12-27T10:36:38.296Z,7.20
2022-12-27T10:39:16.762Z,7.30
2022-12-27T10:41:55.315Z,7.30
2022-12-27T10:44:24.640Z,7.30
2022-12-27T10:46:56.480Z,7.30
2022-12-27T10:49:28.132Z,7.40
2022-12-27T10:51:59.559Z,7.40
2022-12-27T10:54:29.607Z,7.50
2022-12-27T10:57:14.357Z,7.50
2022-12-27T10:59:42.566Z,7.50
2022-12-27T11:02:20.464Z,7.50
2022-12-27T11:04:59.993Z,7.50
2022-12-27T11:07:33.006Z,7.50
2022-12-27T11:10:14.542Z,7.50
2022-12-27T11:12:56.988Z,7.50
2022-12-27T11:15:26.301Z,7.50
2022-12-27T11:17:58.551Z,7.50
2022-12-27T11:20:30.160Z,7.50
2022-12-27T11:23:02.660Z,7.50
2022-12-27T11:25:32.062Z,7.50
2022-12-27T11:28:03.228Z,7.40
2022-12-27T11:30:34.864Z,7.30
2022-12-27T11:33:07.765Z,7.30
2022-12-27T11:35:47.562Z,7.30
2022-12-27T11:38:24.649Z,7.30
2022-12-27T11:41:02.663Z,7.30
2022-12-27T11:43:36.410Z,7.30
2022-12-27T11:46:07.745Z,7.20
2022-12-27T11:48:41.916Z,7.20
2022-12-27T11:51:37.529Z,7.30
2022-12-27T11:54:16.026Z,7.20
2022-12-27T11:56:49.200Z,7.20
2022-12-27T11:59:40.568Z,7.10
2022-12-27T12:02:33.427Z,7.10
2022-12-27T12:05:45.803Z,7.10
2022-12-27T12:08:59.060Z,7.10
2022-12-27T12:11:41.982Z,7.20
2022-12-27T12:14:47.484Z,7.10
2022-12-27T12:17:47.750Z,7.10
2022-12-27T12:20:47.021Z,7.00
2022-12-27T12:23:28.109Z,7.00
2022-12-27T12:26:14.304Z,6.90
2022-12-27T12:29:00.599Z,6.90
2022-12-27T12:32:06.308Z,6.90
2022-12-27T12:34:55.409Z,6.90
2022-12-27T12:37:40.847Z,6.90
2022-12-27T12:40:32.784Z,6.90
2022-12-27T12:43:18.405Z,6.80
2022-12-27T12:46:04.388Z,6.80
2022-12-27T12:48:47.851Z,6.70
2022-12-27T12:51:34.127Z,6.70
2022-12-27T12:54:17.557Z,6.70
2022-12-27T12:56:58.205Z,6.70
2022-12-27T12:59:44.045Z,6.70
2022-12-27T13:02:43.700Z,6.60
2022-12-27T13:05:19.319Z,6.60
2022-12-27T13:08:00.367Z,6.60
2022-12-27T13:11:01.179Z,6.50
2022-12-27T13:13:44.289Z,6.40
2022-12-27T13:16:21.631Z,6.30
2022-12-27T13:18:59.546Z,6.40
2022-12-27T13:21:44.147Z,6.50
2022-12-27T13:24:27.865Z,6.50
2022-12-27T13:27:07.462Z,6.40
2022-12-27T13:30:06.748Z,6.30
2022-12-27T13:32:52.065Z,6.40
2022-12-27T13:35:31.815Z,6.40
2022-12-27T13:38:23.295Z,6.30
2022-12-27T13:41:18.070Z,6.20
2022-12-27T13:44:02.085Z,6.30
2022-12-27T13:47:04.090Z,6.20
2022-12-27T13:49:52.854Z,6.30
2022-12-27T13:52:59.278Z,6.30
2022-12-27T13:55:55.150Z,6.30
2022-12-27T13:58:56.177Z,6.30
2022-12-27T14:01:47.134Z,6.20
2022-12-27T14:04:59.164Z,6.20
2022-12-27T14:07:45.296Z,6.20
2022-12-27T14:10:28.072Z,6.20
2022-12-27T14:12:58.413Z,6.20
2022-12-27T14:15:44.413Z,6.20
2022-12-27T14:18:31.312Z,6.20
2022-12-27T14:21:16.297Z,6.20
2022-12-27T14:24:02.483Z,6.20
2022-12-27T14:27:13.480Z,6.20
2022-12-27T14:30:19.132Z,6.30
2022-12-27T14:33:26.194Z,6.30
2022-12-27T14:36:38.309Z,6.40
2022-12-27T14:39:43.424Z,6.30
2022-12-27T14:42:46.509Z,6.30
2022-12-27T14:45:53.797Z,6.30
2022-12-27T14:48:54.613Z,6.30
2022-12-27T14:52:08.732Z,6.30
2022-12-27T14:55:16.190Z,6.30
2022-12-27T14:57:52.670Z,6.30
2022-12-27T15:00:22.581Z,6.30
2022-12-27T15:03:05.185Z,6.30
2022-12-27T15:05:44.551Z,6.20
2022-12-27T15:08:37.132Z,6.10
2022-12-27T15:11:33.640Z,6.10
2022-12-27T15:14:15.660Z,6.20
2022-12-27T15:16:55.488Z,6.10
2022-12-27T15:19:42.801Z,6.10
2022-12-27T15:22:19.309Z,6.10
2022-12-27T15:24:57.530Z,6.10
2022-12-27T15:27:32.623Z,6.00
2022-12-27T15:30:12.342Z,6.00
2022-12-27T15:32:53.355Z,6.00
2022-12-27T15:35:37.101Z,6.00
2022-12-27T15:38:13.480Z,6.00
2022-12-27T15:40:58.412Z,6.00
2022-12-27T15:43:47.736Z,6.10
2022-12-27T15:46:37.893Z,6.10
2022-12-27T15:49:18.780Z,6.10
2022-12-27T15:51:54.782Z,6.00
2022-12-27T15:54:36.761Z,6.00
2022-12-27T15:57:32.982Z,6.10
2022-12-27T16:00:14.948Z,6.10
2022-12-27T16:02:54.602Z,6.10
2022-12-27T16:05:52.377Z,6.20
2022-12-27T16:08:38.906Z,6.20
2022-12-27T16:11:11.681Z,6.20
2022-12-27T16:13:48.331Z,6.20
2022-12-27T16:16:53.667Z,6.10
2022-12-27T16:19:48.923Z,6.20
2022-12-27T16:22:26.059Z,6.10
2022-12-27T16:24:54.486Z,6.10
2022-12-27T16:27:30.462Z,6.10
2022-12-27T16:30:00.524Z,6.10
2022-12-27T16:32:29.891Z,6.20
2022-12-27T16:35:14.684Z,6.10
2022-12-27T16:37:46.262Z,6.20
2022-12-27T16:40:38.049Z,6.20
2022-12-27T16:43:33.112Z,6.10
2022-12-27T16:46:17.997Z,6.20
2022-12-27T16:49:04.147Z,6.20
2022-12-27T16:51:40.139Z,6.20
2022-12-27T16:54:24.084Z,6.10
2022-12-27T16:56:52.289Z,6.10
2022-12-27T16:59:58.459Z,6.10
2022-12-27T17:02:39.283Z,6.10
2022-12-27T17:05:37.444Z,6.10
2022-12-27T17:08:20.158Z,6.20
2022-12-27T17:11:02.154Z,6.20
2022-12-27T17:13:38.906Z,6.20
2022-12-27T17:16:16.266Z,6.20
2022-12-27T17:18:51.797Z,6.20
2022-12-27T17:21:30.128Z,6.20
2022-12-27T17:24:01.061Z,6.20
2022-12-27T17:26:58.101Z,6.10
2022-12-27T17:29:58.741Z,6.10
2022-12-27T17:32:39.554Z,6.10
2022-12-27T17:35:17.399Z,6.20
2022-12-27T17:38:00.923Z,6.20
2022-12-27T17:40:38.287Z,6.20
2022-12-27T17:43:37.279Z,6.20
2022-12-27T17:46:22.384Z,6.10
2022-12-27T17:48:54.793Z,6.10
2022-12-27T17:51:27.823Z,6.10
2022-12-27T17:54:15.248Z,6.10
2022-12-27T17:57:03.588Z,6.10
2022-12-27T17:59:34.082Z,6.10
2022-12-27T18:02:06.934Z,6.10
2022-12-27T18:04:38.347Z,6.10
2022-12-27T18:07:10.430Z,6.10
2022-12-27T18:09:44.734Z,6.10
2022-12-27T18:12:18.777Z,6.10
2022-12-27T18:14:51.051Z,6.10
2022-12-27T18:17:29.075Z,6.10
2022-12-27T18:19:57.754Z,6.00
2022-12-27T18:22:28.501Z,6.10
2022-12-27T18:24:56.841Z,6.10
2022-12-27T18:27:26.712Z,6.10
2022-12-27T18:29:54.982Z,6.10
2022-12-27T18:32:25.785Z,6.20
2022-12-27T18:34:58.666Z,6.20
2022-12-27T18:37:28.864Z,6.20
2022-12-27T18:40:00.278Z,6.10
2022-12-27T18:42:34.416Z,6.10
2022-12-27T18:45:06.116Z,6.10
2022-12-27T18:47:39.345Z,6.00
2022-12-27T18:50:16.325Z,6.00
2022-12-27T18:52:51.291Z,6.00
2022-12-27T18:55:26.913Z,6.00
2022-12-27T18:58:05.422Z,6.10
2022-12-27T19:00:33.915Z,6.10
2022-12-27T19:03:15.032Z,6.10
2022-12-27T19:05:59.539Z,6.10
2022-12-27T19:08:34.132Z,6.20
2022-12-27T19:11:02.410Z,6.20
2022-12-27T19:13:35.604Z,6.20
2022-12-27T19:16:03.952Z,6.20
2022-12-27T19:18:38.380Z,6.30
2022-12-27T19:21:08.158Z,6.20
2022-12-27T19:23:39.322Z,6.10
2022-12-27T19:26:22.556Z,6.00
2022-12-27T19:29:02.045Z,6.10
2022-12-27T19:31:30.966Z,6.10
2022-12-27T19:34:02.224Z,6.10
2022-12-27T19:36:33.385Z,6.10
2022-12-27T19:39:03.262Z,6.00
2022-12-27T19:41:31.973Z,6.10
2022-12-27T19:44:00.232Z,6.10
2022-12-27T19:46:31.643Z,6.10
2022-12-27T19:51:48.146Z,6.20
2022-12-27T19:54:20.180Z,6.20
2022-12-27T19:56:50.719Z,6.10
2022-12-27T19:59:20.769Z,6.10
2022-12-27T20:01:51.928Z,6.20
2022-12-27T20:04:20.248Z,6.20
2022-12-27T20:06:50.009Z,6.20
2022-12-27T20:09:20.774Z,6.20
2022-12-27T20:11:50.931Z,6.20
2022-12-27T20:14:19.297Z,6.20
2022-12-27T20:16:48.121Z,6.10
2022-12-27T20:19:18.230Z,6.10
2022-12-27T20:21:46.813Z,6.10
2022-12-27T20:24:15.462Z,6.20
2022-12-27T20:26:45.299Z,6.10
2022-12-27T20:29:15.194Z,6.10
2022-12-27T20:31:46.160Z,6.00
2022-12-27T20:34:14.766Z,6.00
2022-12-27T20:36:43.508Z,6.00
2022-12-27T20:39:11.771Z,6.00
2022-12-27T20:41:40.059Z,6.00
2022-12-27T20:44:09.718Z,5.90
2022-12-27T20:46:37.907Z,5.90
2022-12-27T20:49:07.074Z,5.90
2022-12-27T20:51:35.367Z,5.90
2022-12-27T20:54:04.689Z,5.90
2022-12-27T20:56:34.262Z,5.80
2022-12-27T20:59:03.151Z,5.80
2022-12-27T21:01:32.839Z,5.80
2022-12-27T21:04:01.125Z,5.80
2022-12-27T21:06:30.249Z,5.80
2022-12-27T21:08:59.482Z,5.80
2022-12-27T21:11:31.387Z,5.80
2022-12-27T21:14:01.457Z,5.80
2022-12-27T21:16:35.203Z,5.80
2022-12-27T21:19:05.097Z,5.80
2022-12-27T21:21:36.460Z,5.80
2022-12-27T21:24:06.147Z,5.80
2022-12-27T21:26:36.939Z,5.80
2022-12-27T21:29:07.517Z,5.80
2022-12-27T21:31:37.756Z,5.80
2022-12-27T21:34:07.145Z,5.80
2022-12-27T21:36:36.460Z,5.80
2022-12-27T21:39:05.577Z,5.80
2022-12-27T21:41:35.578Z,5.90
2022-12-27T21:44:04.376Z,5.90
2022-12-27T21:46:34.231Z,5.90
2022-12-27T21:49:06.327Z,5.90
2022-12-27T21:51:37.089Z,5.90
2022-12-27T21:54:05.981Z,5.90
2022-12-27T21:56:34.442Z,5.90
2022-12-27T21:59:04.596Z,5.90
2022-12-27T22:01:50.714Z,5.90
2022-12-27T22:04:22.635Z,5.90
2022-12-27T22:06:51.290Z,5.90
2022-12-27T22:09:20.044Z,5.90
2022-12-27T22:11:49.034Z,5.90
2022-12-27T22:14:20.574Z,6.00
2022-12-27T22:16:51.676Z,6.00
2022-12-27T22:19:19.857Z,6.00
2022-12-27T22:21:49.438Z,6.00
2022-12-27T22:24:19.895Z,6.00
2022-12-27T22:26:50.372Z,6.00
2022-12-27T22:29:19.032Z,6.00
2022-12-27T22:31:47.257Z,6.00
2022-12-27T22:34:15.532Z,6.00
2022-12-27T22:36:43.835Z,5.90
2022-12-27T22:39:13.651Z,6.00
2022-12-27T22:41:42.111Z,6.00
2022-12-27T22:44:13.057Z,5.90
2022-12-27T22:47:15.814Z,5.90
2022-12-27T22:49:30.414Z,5.90
2022-12-27T22:51:58.884Z,5.90
2022-12-27T22:55:04.958Z,6.00
2022-12-27T22:57:16.717Z,5.90
2022-12-27T22:59:44.969Z,6.00
2022-12-27T23:02:13.334Z,6.00
2022-12-27T23:04:41.756Z,5.90
2022-12-27T23:07:10.106Z,5.90
2022-12-27T23:09:43.325Z,5.90
2022-12-27T23:12:12.279Z,5.80
2022-12-27T23:14:41.032Z,5.80
2022-12-27T23:17:09.308Z,5.80
2022-12-27T23:19:37.506Z,5.80
2022-12-27T23:22:06.038Z,5.80
2022-12-27T23:24:34.527Z,5.80
2022-12-27T23:27:04.448Z,5.80
2022-12-27T23:29:32.688Z,5.80
2022-12-27T23:32:00.967Z,5.80
2022-12-27T23:34:29.553Z,5.70
2022-12-27T23:36:58.180Z,5.80
2022-12-27T23:39:26.584Z,5.80
2022-12-27T23:41:55.114Z,5.80
2022-12-27T23:44:33.671Z,5.80
2022-12-27T23:47:04.574Z,5.80
2022-12-27T23:49:34.926Z,5.80
2022-12-27T23:52:03.580Z,5.80
2022-12-27T23:54:32.127Z,5.70
2022-12-27T23:57:20.377Z,5.70
2022-12-27T23:59:50.165Z,5.70
